Terminal Aerodrome Forecast
Issued by NWS

Home | Current Version | Previous Version | Text Only | Print | Product List | Glossary On
Versions: 1 2 3 4 5 6 7 8 9 10 11 12 13
000
FTUS44 KOUN 170520
TAFPNC
TAF
KPNC 170520Z 1706/1806 17008KT P6SM SKC
     FM170900 09008KT P6SM OVC100
     FM171400 05011KT P6SM BKN025 OVC050
      TEMPO 1716/1720 6SM -RA BKN015 OVC025
     FM180000 08005KT P6SM SCT030 BKN250=

USA.gov is the U.S. government's official web portal to all federal, state and local government web resources and services.